Time;durP1;ratioP1;P1;durP2;ratioP2;P2;SDS_P1;SDS_P2;PMS_P1;PMS_P2;Temp;Humidity;BMP_temperature;BMP_pressure;BME280_temperature;BME280_humidity;BME280_pressure;Samples;Min_cycle;Max_cycle;Signal;HPM_P1;HPM_P2
2023/10/02 00:00:43;;;;;;;7.35;3.13;;;;;;;10.38;94.05;99127.59;5104740;28;20036;-38
2023/10/02 00:03:09;;;;;;;9.05;4.15;;;;;;;10.40;94.08;99130.16;5091540;28;20035;-38
2023/10/02 00:05:52;;;;;;;9.10;4.35;;;;;;;10.24;93.78;99103.13;5066285;28;20114;-39
2023/10/02 00:11:35;;;;;;;12.90;4.32;;;;;;;10.54;93.84;99130.41;5066320;28;20032;-38
2023/10/02 00:14:21;;;;;;;13.20;4.55;;;;;;;10.57;93.23;99123.31;5052961;28;20186;-41
2023/10/02 00:17:00;;;;;;;9.93;3.53;;;;;;;10.60;93.40;99127.53;5085253;28;20040;-39
2023/10/02 00:19:33;;;;;;;11.18;3.75;;;;;;;10.61;93.59;99124.88;5066501;28;20044;-39
2023/10/02 00:22:08;;;;;;;8.43;3.47;;;;;;;10.57;92.86;99128.50;5105089;28;20043;-39
2023/10/02 00:24:39;;;;;;;8.57;3.60;;;;;;;10.56;93.11;99126.00;5101674;28;20071;-38
2023/10/02 00:27:06;;;;;;;13.23;3.47;;;;;;;10.24;93.36;99078.00;5097297;28;20520;-39
2023/10/02 00:29:33;;;;;;;8.27;3.40;;;;;;;10.14;93.27;99071.47;5066766;28;20075;-39
2023/10/02 00:31:59;;;;;;;9.48;3.63;;;;;;;10.50;93.44;99126.25;5092006;28;20035;-39
2023/10/02 00:34:32;;;;;;;9.77;3.30;;;;;;;10.48;93.59;99130.66;5105777;28;20043;-39
2023/10/02 00:37:06;;;;;;;7.93;2.92;;;;;;;10.42;94.43;99134.34;5107679;28;20105;-39
2023/10/02 00:39:35;;;;;;;5.88;2.83;;;;;;;10.16;94.27;99096.50;5092722;28;20041;-38
2023/10/02 00:42:16;;;;;;;6.18;3.38;;;;;;;10.38;94.13;99134.56;5066775;28;20040;-39
2023/10/02 00:44:56;;;;;;;9.40;2.72;;;;;;;10.31;94.85;99136.56;5100648;28;20044;-38
2023/10/02 00:50:27;;;;;;;10.90;3.25;;;;;;;10.30;95.89;99128.84;5051276;28;20047;-38
2023/10/02 00:52:58;;;;;;;7.30;2.40;;;;;;;10.12;95.36;99109.63;5062202;28;20113;-40
2023/10/02 00:55:27;;;;;;;7.28;3.13;;;;;;;10.36;95.42;99146.78;5089269;28;20033;-39
2023/10/02 00:57:58;;;;;;;6.72;3.20;;;;;;;10.43;95.19;99138.66;5106298;28;20062;-39
2023/10/02 01:00:35;;;;;;;6.90;2.88;;;;;;;10.39;95.78;99142.28;5069794;28;20636;-39
2023/10/02 01:03:05;;;;;;;8.43;2.83;;;;;;;10.42;95.81;99136.09;5085837;28;20171;-40
2023/10/02 01:05:41;;;;;;;8.82;2.97;;;;;;;10.42;96.10;99147.34;5066763;28;20053;-39
2023/10/02 01:08:24;;;;;;;6.22;2.75;;;;;;;10.20;95.29;99102.41;5065762;28;20040;-40
2023/10/02 01:10:56;;;;;;;12.85;4.72;;;;;;;10.46;95.47;99142.88;5098398;28;20040;-39
2023/10/02 01:13:32;;;;;;;6.55;2.63;;;;;;;10.50;95.28;99141.84;5095253;28;20036;-39
2023/10/02 01:16:04;;;;;;;6.07;2.75;;;;;;;10.52;95.00;99145.22;5101603;28;20031;-39
2023/10/02 01:18:31;;;;;;;7.50;2.85;;;;;;;10.52;95.14;99142.63;5087989;28;20076;-38
2023/10/02 01:20:59;;;;;;;10.88;3.05;;;;;;;10.51;95.04;99143.53;5086751;28;20036;-39
2023/10/02 01:23:31;;;;;;;8.55;2.90;;;;;;;10.54;95.39;99146.00;5069909;28;20131;-39
2023/10/02 01:25:59;;;;;;;5.57;2.67;;;;;;;10.60;94.84;99145.72;5070134;28;20040;-39
2023/10/02 01:28:49;;;;;;;5.80;3.08;;;;;;;10.40;95.46;99106.75;5070560;28;20079;-40
2023/10/02 01:31:32;;;;;;;9.30;2.85;;;;;;;10.48;94.96;99121.09;5075683;28;20064;-39
2023/10/02 01:34:03;;;;;;;10.95;2.90;;;;;;;10.67;94.78;99143.72;5092674;28;20081;-39
2023/10/02 01:36:31;;;;;;;5.07;2.80;;;;;;;10.67;94.65;99157.56;5093002;28;20028;-40
2023/10/02 01:39:15;;;;;;;8.60;3.35;;;;;;;10.70;94.68;99152.22;5081832;28;20135;-39
2023/10/02 01:41:52;;;;;;;12.40;3.60;;;;;;;10.74;94.43;99158.13;5073578;28;20052;-38
2023/10/02 01:44:22;;;;;;;5.53;2.80;;;;;;;10.80;94.45;99153.50;5106834;28;20472;-39
2023/10/02 01:46:50;;;;;;;11.07;3.17;;;;;;;10.95;93.71;99155.44;5093865;28;20067;-40
2023/10/02 01:49:27;;;;;;;6.68;2.63;;;;;;;10.82;93.62;99117.06;5084368;28;20102;-40
2023/10/02 01:52:08;;;;;;;7.72;2.95;;;;;;;11.06;92.76;99160.16;5068929;28;20029;-39
2023/10/02 01:54:34;;;;;;;7.80;3.58;;;;;;;10.90;92.65;99146.16;5077492;28;20043;-39
2023/10/02 01:57:04;;;;;;;10.65;2.90;;;;;;;10.97;92.58;99164.03;5090585;28;20127;-39
2023/10/02 01:59:30;;;;;;;6.13;3.03;;;;;;;10.77;92.15;99137.22;5051997;28;20071;-39
2023/10/02 02:01:57;;;;;;;5.35;3.05;;;;;;;10.99;92.19;99158.75;5108041;28;20049;-40
2023/10/02 02:04:27;;;;;;;5.65;3.30;;;;;;;10.94;92.34;99173.69;5084785;28;20033;-40
2023/10/02 02:06:56;;;;;;;10.07;3.33;;;;;;;11.01;91.78;99173.38;5074633;28;20090;-40
2023/10/02 02:09:26;;;;;;;5.80;3.03;;;;;;;11.02;91.90;99174.22;5091608;28;20514;-39
2023/10/02 02:12:12;;;;;;;5.68;2.92;;;;;;;10.91;91.30;99146.09;5091800;27;20044;-39
2023/10/02 02:14:57;;;;;;;5.05;2.33;;;;;;;11.24;90.60;99172.34;5109860;28;20039;-39
2023/10/02 02:17:43;;;;;;;7.43;3.17;;;;;;;11.33;89.89;99171.09;5110740;28;20048;-39
2023/10/02 02:20:11;;;;;;;6.85;2.70;;;;;;;11.38;89.97;99174.31;5059086;28;20089;-39
2023/10/02 02:22:38;;;;;;;6.13;2.75;;;;;;;11.43;89.35;99170.59;5070373;28;20530;-39
2023/10/02 02:25:04;;;;;;;5.47;2.60;;;;;;;11.37;89.28;99165.66;5069006;28;20051;-40
2023/10/02 02:27:31;;;;;;;4.43;2.65;;;;;;;11.38;88.54;99169.97;5088213;28;20044;-39
2023/10/02 02:29:58;;;;;;;6.88;2.95;;;;;;;11.34;88.32;99172.78;5107175;28;20039;-40
2023/10/02 02:32:54;;;;;;;5.00;2.58;;;;;;;11.37;88.56;99186.50;5102935;28;20039;-40
2023/10/02 02:35:21;;;;;;;8.13;2.80;;;;;;;11.15;88.25;99179.75;5058097;28;20311;-41
2023/10/02 02:37:50;;;;;;;7.40;2.72;;;;;;;11.20;88.74;99181.19;5068783;28;20473;-40
2023/10/02 02:40:22;;;;;;;5.90;2.67;;;;;;;11.25;88.45;99186.22;5070073;28;20505;-39
2023/10/02 02:42:51;;;;;;;7.38;2.60;;;;;;;11.30;88.22;99179.03;5068066;28;20447;-39
2023/10/02 02:45:28;;;;;;;6.45;2.88;;;;;;;11.35;88.16;99188.34;5086640;28;20067;-39
2023/10/02 02:48:10;;;;;;;7.25;2.90;;;;;;;11.37;88.05;99183.03;5095370;28;20520;-39
2023/10/02 02:50:40;;;;;;;5.68;2.90;;;;;;;11.26;87.52;99180.91;5085003;27;20085;-40
2023/10/02 02:53:17;;;;;;;5.97;2.65;;;;;;;11.30;87.68;99185.09;5089983;28;20591;-41
2023/10/02 02:55:45;;;;;;;4.32;2.58;;;;;;;11.13;88.15;99151.19;5071670;28;20860;-40
2023/10/02 02:58:11;;;;;;;11.85;3.35;;;;;;;11.27;87.79;99164.41;5088382;28;20038;-39
2023/10/02 03:00:40;;;;;;;6.07;3.00;;;;;;;11.39;87.24;99183.81;5058108;28;20047;-40
2023/10/02 03:05:58;;;;;;;11.25;4.00;;;;;;;11.44;87.26;99182.69;5082676;28;20048;-40
2023/10/02 03:08:47;;;;;;;6.78;3.08;;;;;;;11.31;87.51;99183.31;5070241;28;20676;-39
2023/10/02 03:11:19;;;;;;;8.13;3.20;;;;;;;10.87;87.87;99156.69;5087777;28;20047;-38
2023/10/02 03:13:47;;;;;;;5.25;3.08;;;;;;;11.03;88.38;99186.31;5077558;28;20032;-41
2023/10/02 03:16:28;;;;;;;6.40;3.03;;;;;;;11.03;89.11;99186.31;5088249;28;20186;-41
2023/10/02 03:18:55;;;;;;;6.43;3.03;;;;;;;11.07;89.34;99179.22;5088062;28;20063;-39
2023/10/02 03:21:24;;;;;;;5.88;3.17;;;;;;;11.14;88.74;99185.84;5081838;28;20044;-39
2023/10/02 03:24:00;;;;;;;4.90;3.15;;;;;;;10.92;88.49;99178.16;5088753;28;20050;-39
2023/10/02 03:26:27;;;;;;;6.60;3.00;;;;;;;10.52;89.78;99146.03;5086809;28;20039;-40
2023/10/02 03:29:04;;;;;;;5.80;3.10;;;;;;;10.72;89.77;99184.22;5088595;28;20040;-40
2023/10/02 03:31:49;;;;;;;8.85;3.05;;;;;;;10.76;89.98;99174.50;5071684;28;20058;-40
2023/10/02 03:34:27;;;;;;;8.90;3.40;;;;;;;10.83;90.09;99182.00;5070025;28;20836;-40
2023/10/02 03:36:59;;;;;;;4.88;2.95;;;;;;;10.67;89.47;99147.16;5086954;28;20063;-39
2023/10/02 03:42:22;;;;;;;7.30;3.03;;;;;;;10.88;90.11;99179.19;5105432;28;20067;-39
2023/10/02 03:44:56;;;;;;;4.60;2.60;;;;;;;10.78;90.06;99178.72;5095105;28;20072;-38
2023/10/02 03:47:23;;;;;;;6.22;2.78;;;;;;;10.73;90.16;99185.06;5083110;28;20753;-40
2023/10/02 03:49:50;;;;;;;8.48;3.13;;;;;;;10.69;90.50;99184.31;5083162;28;20041;-40
2023/10/02 03:52:17;;;;;;;6.15;2.90;;;;;;;10.82;90.77;99189.84;5082301;28;20051;-39
2023/10/02 03:54:45;;;;;;;6.47;3.50;;;;;;;10.84;89.99;99195.81;5099766;28;21374;-40
2023/10/02 03:57:37;;;;;;;7.05;3.20;;;;;;;10.72;90.23;99173.81;5094311;28;20032;-39
2023/10/02 04:00:12;;;;;;;7.63;3.67;;;;;;;10.93;90.20;99196.28;5083130;28;20044;-40
2023/10/02 04:02:38;;;;;;;;;;;;;;;11.02;90.26;99202.84;5099272;28;20046;-40
2023/10/02 04:05:04;;;;;;;5.45;3.03;;;;;;;11.02;89.85;99205.44;5084877;28;20030;-39
2023/10/02 04:07:30;;;;;;;5.30;3.28;;;;;;;11.10;89.31;99208.53;5067932;28;20043;-39
2023/10/02 04:09:57;;;;;;;7.10;3.55;;;;;;;11.17;89.30;99207.34;5079257;28;20063;-41
2023/10/02 04:12:23;;;;;;;5.68;3.17;;;;;;;11.24;89.22;99206.19;5077182;28;20040;-40
2023/10/02 04:14:49;;;;;;;6.63;3.50;;;;;;;11.28;89.04;99210.34;5087346;28;20085;-39
2023/10/02 04:19:58;;;;;;;7.13;3.78;;;;;;;11.41;88.90;99218.41;5104446;28;20036;-39
2023/10/02 04:22:25;;;;;;;6.47;3.05;;;;;;;11.41;88.17;99211.44;5069343;28;20047;-41
2023/10/02 04:24:58;;;;;;;7.75;2.95;;;;;;;11.44;88.19;99213.94;5093986;28;20104;-40
2023/10/02 04:28:12;;;;;;;5.95;2.90;;;;;;;11.52;88.57;99221.38;5096469;28;20040;-39
2023/10/02 04:30:24;;;;;;;9.13;3.35;;;;;;;11.50;88.13;99202.41;5067331;28;20048;-40
2023/10/02 04:32:51;;;;;;;6.05;3.38;;;;;;;11.64;87.96;99217.38;5073150;28;20173;-39
2023/10/02 04:36:05;;;;;;;6.32;3.20;;;;;;;11.68;87.72;99224.13;5101626;28;20040;-40
2023/10/02 04:38:47;;;;;;;4.95;2.90;;;;;;;11.72;87.38;99225.69;5067181;28;20045;-41
2023/10/02 04:41:05;;;;;;;5.63;2.72;;;;;;;11.63;87.42;99226.09;5092072;28;20130;-41
2023/10/02 04:43:34;;;;;;;7.20;3.15;;;;;;;11.68;87.04;99229.34;5102210;28;20130;-40
2023/10/02 04:46:08;;;;;;;5.90;3.00;;;;;;;11.70;86.97;99235.31;5091093;28;20041;-41
2023/10/02 04:48:46;;;;;;;5.95;3.15;;;;;;;11.70;86.87;99233.56;5078849;28;20565;-40
2023/10/02 04:51:15;;;;;;;5.03;3.10;;;;;;;11.61;87.21;99230.56;5085214;28;20068;-40
2023/10/02 04:53:45;;;;;;;7.32;4.38;;;;;;;11.61;86.78;99227.94;5069901;28;20532;-41
2023/10/02 04:56:33;;;;;;;8.95;3.53;;;;;;;11.46;86.60;99209.50;5086035;28;20415;-40
2023/10/02 04:58:58;;;;;;;3.85;2.38;;;;;;;11.74;86.08;99237.75;5083204;28;20047;-39
2023/10/02 05:01:41;;;;;;;5.47;2.50;;;;;;;11.49;86.43;99242.34;5110371;28;20050;-39
2023/10/02 05:04:16;;;;;;;6.05;2.65;;;;;;;11.11;86.85;99201.56;5107728;28;20051;-39
2023/10/02 05:06:44;;;;;;;4.07;2.38;;;;;;;11.21;87.49;99240.13;5095174;28;20052;-41
2023/10/02 05:09:19;;;;;;;4.45;2.30;;;;;;;11.14;88.21;99241.34;5070900;28;20048;-41
2023/10/02 05:11:52;;;;;;;4.95;2.60;;;;;;;11.09;88.83;99247.63;5069016;28;20135;-40
2023/10/02 05:14:26;;;;;;;7.32;3.33;;;;;;;11.20;89.10;99255.81;5069092;28;20394;-39
2023/10/02 05:17:38;;;;;;;10.77;3.42;;;;;;;11.33;88.37;99260.41;5085438;28;20040;-40
2023/10/02 05:20:07;;;;;;;6.30;3.63;;;;;;;11.53;87.95;99261.28;5072276;28;20070;-40
2023/10/02 05:22:36;;;;;;;7.18;3.00;;;;;;;11.26;87.21;99203.50;5086233;28;20044;-41
2023/10/02 05:25:07;;;;;;;5.10;2.83;;;;;;;11.53;87.31;99256.06;5104875;28;20051;-42
2023/10/02 05:27:36;;;;;;;5.10;2.60;;;;;;;11.26;87.18;99229.50;5107980;28;20049;-41
2023/10/02 05:30:12;;;;;;;;;;;;;;;11.50;86.96;99266.63;5075373;28;20534;-40
2023/10/02 05:32:39;;;;;;;7.82;2.50;;;;;;;11.60;86.75;99265.31;5075467;28;19965;-39
2023/10/02 05:37:40;;;;;;;9.07;4.53;;;;;;;11.90;86.05;99263.94;5095621;28;20036;-41
2023/10/02 05:48:27;;;;;;;9.90;3.03;;;;;;;12.06;85.40;99271.88;5090664;28;20432;-39
2023/10/02 05:50:59;;;;;;;6.88;2.70;;;;;;;12.15;85.15;99271.44;5053823;28;20051;-41
2023/10/02 05:53:29;;;;;;;5.93;3.00;;;;;;;12.19;84.58;99267.78;5097738;28;20539;-39
2023/10/02 05:58:55;;;;;;;5.63;2.73;;;;;;;12.29;84.32;99279.47;5077870;28;20379;-40
2023/10/02 06:01:25;;;;;;;8.43;3.25;;;;;;;12.25;84.30;99275.28;5070069;28;20278;-39
2023/10/02 06:03:56;;;;;;;5.45;2.78;;;;;;;12.13;84.07;99239.41;5094779;28;20490;-41
2023/10/02 06:06:24;;;;;;;4.15;2.33;;;;;;;12.38;83.68;99276.41;5105553;28;20036;-40
2023/10/02 06:08:51;;;;;;;3.58;2.03;;;;;;;12.36;83.18;99280.84;5072536;28;20040;-40
2023/10/02 06:11:25;;;;;;;8.73;3.00;;;;;;;12.43;83.21;99281.41;5065210;28;20046;-40
2023/10/02 06:13:57;;;;;;;5.97;2.50;;;;;;;12.53;82.53;99280.03;5081213;28;20040;-40
2023/10/02 06:16:29;;;;;;;7.40;3.10;;;;;;;12.43;82.25;99277.03;5068222;28;20041;-41
2023/10/02 06:19:02;;;;;;;6.38;2.95;;;;;;;12.49;82.15;99287.16;5051409;28;20040;-38
2023/10/02 06:21:29;;;;;;;4.88;2.85;;;;;;;12.31;82.04;99288.03;5055761;28;20040;-40
2023/10/02 06:23:56;;;;;;;7.03;2.90;;;;;;;12.28;82.76;99302.06;5083488;28;20462;-42
2023/10/02 06:26:29;;;;;;;4.53;2.63;;;;;;;12.19;82.53;99299.91;5089383;28;20040;-40
2023/10/02 06:29:16;;;;;;;7.03;2.70;;;;;;;12.02;82.35;99254.72;5067785;28;20059;-42
2023/10/02 06:31:42;;;;;;;7.20;2.97;;;;;;;12.20;82.27;99303.34;5074689;28;20056;-42
2023/10/02 06:34:11;;;;;;;5.43;2.70;;;;;;;12.24;82.39;99308.34;5080791;28;20044;-43
2023/10/02 06:36:48;;;;;;;5.82;3.60;;;;;;;12.17;82.40;99312.16;5072362;28;20126;-40
2023/10/02 06:39:21;;;;;;;7.75;2.92;;;;;;;12.18;82.61;99313.84;5072787;28;20436;-39
2023/10/02 06:41:47;;;;;;;9.93;3.83;;;;;;;11.99;82.79;99301.72;5087870;28;20040;-42
2023/10/02 06:44:16;;;;;;;5.13;3.20;;;;;;;12.07;83.03;99323.06;5088601;28;20055;-41
2023/10/02 06:46:53;;;;;;;9.93;4.28;;;;;;;12.13;82.99;99325.41;5099505;28;20412;-41
2023/10/02 06:49:20;;;;;;;9.57;2.92;;;;;;;12.08;82.94;99294.34;5066721;28;20562;-40
2023/10/02 06:51:50;;;;;;;9.65;3.13;;;;;;;12.41;82.46;99330.16;5084474;28;20115;-40
2023/10/02 06:54:19;;;;;;;6.95;2.90;;;;;;;12.49;82.23;99341.06;5068519;28;20036;-39
2023/10/02 06:56:45;;;;;;;6.85;2.78;;;;;;;12.54;81.95;99339.94;5069974;28;20040;-39
2023/10/02 06:59:12;;;;;;;4.05;2.70;;;;;;;12.62;81.75;99344.78;5087607;28;20056;-41
2023/10/02 07:02:04;;;;;;;7.53;2.80;;;;;;;12.71;81.29;99337.38;5102947;28;20036;-40
2023/10/02 07:04:30;;;;;;;3.35;1.92;;;;;;;12.81;80.87;99332.56;5067359;28;20173;-40
2023/10/02 07:07:03;;;;;;;7.55;2.95;;;;;;;12.69;80.35;99310.50;5083768;28;20060;-40
2023/10/02 07:09:34;;;;;;;4.53;2.15;;;;;;;12.82;79.81;99343.84;5045275;28;20534;-40
2023/10/02 07:12:13;;;;;;;5.22;2.10;;;;;;;12.79;79.72;99354.41;5066280;28;20040;-40
2023/10/02 07:14:43;;;;;;;9.15;2.58;;;;;;;12.79;79.68;99352.63;5052832;28;20045;-41
2023/10/02 07:17:22;;;;;;;4.32;2.17;;;;;;;12.76;79.70;99351.97;5068306;28;20036;-40
2023/10/02 07:19:50;;;;;;;7.30;2.00;;;;;;;12.58;79.70;99372.78;5067979;28;20051;-39
2023/10/02 07:22:24;;;;;;;5.50;2.70;;;;;;;12.57;79.92;99363.25;5084021;28;20043;-42
2023/10/02 07:24:57;;;;;;;3.28;2.28;;;;;;;12.50;79.80;99367.09;5071860;28;20530;-43
2023/10/02 07:27:27;;;;;;;2.80;1.67;;;;;;;12.30;79.84;99362.78;5054528;28;20363;-40
2023/10/02 07:30:03;;;;;;;4.85;2.10;;;;;;;12.29;80.65;99368.09;5086311;28;20040;-39
2023/10/02 07:32:34;;;;;;;3.42;1.50;;;;;;;12.45;80.05;99365.63;5086223;28;20143;-39
2023/10/02 07:35:09;;;;;;;4.53;2.10;;;;;;;12.61;79.72;99362.19;5095148;28;20035;-41
2023/10/02 07:37:36;;;;;;;6.45;1.75;;;;;;;12.73;79.04;99371.19;5104386;28;20505;-39
2023/10/02 07:40:06;;;;;;;2.35;1.20;;;;;;;12.57;78.88;99370.22;5067882;28;20044;-40
2023/10/02 07:42:33;;;;;;;4.85;1.38;;;;;;;12.64;79.33;99369.88;5069604;28;20048;-40
2023/10/02 07:45:11;;;;;;;4.50;1.25;;;;;;;12.76;78.91;99373.66;5082658;28;20036;-40
2023/10/02 07:47:39;;;;;;;3.17;1.05;;;;;;;12.76;78.21;99373.66;5074831;28;20040;-40
2023/10/02 07:50:23;;;;;;;2.72;1.30;;;;;;;12.42;78.04;99368.34;5074054;28;20411;-41
2023/10/02 07:52:49;;;;;;;1.88;1.13;;;;;;;12.42;77.94;99370.94;5070384;28;20036;-40
2023/10/02 07:55:15;;;;;;;2.70;1.20;;;;;;;12.51;77.51;99373.16;5082928;28;20083;-40
2023/10/02 07:57:41;;;;;;;2.10;1.15;;;;;;;12.67;77.32;99377.53;5069252;28;20035;-39
2023/10/02 08:00:33;;;;;;;1.52;0.95;;;;;;;12.90;77.03;99379.06;5069303;28;20039;-40
2023/10/02 08:02:54;;;;;;;2.42;1.00;;;;;;;12.97;76.27;99351.75;5082290;28;20090;-41
2023/10/02 08:05:20;;;;;;;3.28;1.08;;;;;;;13.33;75.48;99377.81;5094287;28;20530;-40
2023/10/02 08:07:46;;;;;;;1.75;1.00;;;;;;;13.47;74.77;99384.94;5100506;28;20044;-39
2023/10/02 08:10:15;;;;;;;4.38;1.42;;;;;;;13.70;73.89;99389.00;5077376;28;20040;-39
2023/10/02 08:12:54;;;;;;;2.17;0.90;;;;;;;13.56;73.34;99337.44;5095498;28;20071;-40
2023/10/02 08:15:26;;;;;;;1.15;0.73;;;;;;;13.95;72.55;99389.41;5079862;28;20033;-42
2023/10/02 08:20:24;;;;;;;4.65;1.65;;;;;;;14.07;72.07;99385.31;5085570;28;20075;-40
2023/10/02 08:22:53;;;;;;;2.78;1.05;;;;;;;14.27;71.68;99385.06;5087542;28;20181;-41
2023/10/02 08:25:23;;;;;;;1.17;0.73;;;;;;;13.90;70.75;99318.25;5068791;28;20094;-42
2023/10/02 08:27:57;;;;;;;3.40;0.80;;;;;;;14.29;70.24;99386.66;5071499;28;20040;-41
2023/10/02 08:30:31;;;;;;;6.03;1.55;;;;;;;14.45;69.85;99378.00;5100181;28;20083;-41
2023/10/02 08:33:08;;;;;;;2.08;0.70;;;;;;;14.59;69.35;99394.66;5075227;28;20135;-40
2023/10/02 08:35:40;;;;;;;1.85;1.00;;;;;;;14.60;68.75;99390.28;5105055;28;20167;-41
2023/10/02 08:38:21;;;;;;;2.13;0.70;;;;;;;14.49;68.74;99390.00;5110559;28;20049;-42
2023/10/02 08:40:59;;;;;;;3.83;0.82;;;;;;;14.20;68.66;99371.47;5104622;28;20472;-41
2023/10/02 08:43:27;;;;;;;2.10;1.08;;;;;;;14.36;68.75;99397.63;5108768;28;20521;-41
2023/10/02 08:45:54;;;;;;;2.10;0.90;;;;;;;14.20;68.77;99405.47;5090250;27;20090;-42
2023/10/02 08:48:21;;;;;;;1.50;0.75;;;;;;;14.05;69.30;99400.22;5069672;28;20055;-41
2023/10/02 08:50:47;;;;;;;1.38;0.73;;;;;;;14.07;69.33;99399.22;5067882;28;20131;-40
2023/10/02 08:53:21;;;;;;;4.00;1.00;;;;;;;14.20;69.17;99402.00;5098046;28;20035;-41
2023/10/02 08:58:18;;;;;;;6.00;0.93;;;;;;;14.23;69.19;99410.56;5078136;28;20184;-41
2023/10/02 09:01:40;;;;;;;1.40;1.02;;;;;;;14.29;69.38;99409.34;5072485;28;20040;-40
2023/10/02 09:06:41;;;;;;;3.22;1.10;;;;;;;14.21;69.20;99411.53;5075119;28;20523;-42
2023/10/02 09:09:21;;;;;;;2.58;0.95;;;;;;;14.19;69.37;99410.75;5087561;28;20089;-41
2023/10/02 09:11:57;;;;;;;2.47;1.10;;;;;;;14.25;69.50;99413.91;5070500;28;20051;-42
2023/10/02 09:17:18;;;;;;;3.03;1.15;;;;;;;14.28;69.40;99402.44;5088803;28;20059;-40
2023/10/02 09:19:56;;;;;;;4.22;1.00;;;;;;;14.35;69.24;99407.25;5082909;28;20040;-41
2023/10/02 09:22:25;;;;;;;2.00;1.13;;;;;;;14.42;69.05;99402.56;5082801;28;20044;-41
2023/10/02 09:25:15;;;;;;;1.75;0.90;;;;;;;14.42;68.99;99413.03;5081698;28;20036;-41
2023/10/02 09:27:56;;;;;;;2.55;0.98;;;;;;;14.49;69.00;99408.31;5068881;28;20139;-45
2023/10/02 09:30:36;;;;;;;5.00;0.90;;;;;;;14.60;68.53;99409.41;5068693;28;20049;-42
2023/10/02 09:33:08;;;;;;;3.78;1.00;;;;;;;14.47;68.80;99416.25;5070609;28;20039;-41
2023/10/02 09:38:06;;;;;;;5.70;1.20;;;;;;;14.63;68.67;99414.47;5085423;28;20044;-42
2023/10/02 09:43:27;;;;;;;3.72;1.08;;;;;;;14.34;69.46;99418.63;5088736;28;20047;-40
2023/10/02 09:45:55;;;;;;;5.35;1.30;;;;;;;14.19;70.06;99426.47;5087600;28;20047;-42
2023/10/02 09:51:20;;;;;;;3.05;1.35;;;;;;;14.17;70.67;99421.31;5069589;28;20036;-40
2023/10/02 09:54:04;;;;;;;6.70;1.38;;;;;;;14.17;71.13;99420.47;5089294;28;20120;-42
2023/10/02 09:57:06;;;;;;;2.28;1.10;;;;;;;14.21;71.36;99420.22;5067507;28;20032;-41
2023/10/02 09:59:48;;;;;;;2.00;1.20;;;;;;;14.11;71.19;99392.91;5071130;28;20056;-41
2023/10/02 10:05:39;;;;;;;7.63;1.38;;;;;;;14.15;71.77;99427.56;5070989;28;20790;-41
2023/10/02 10:07:59;;;;;;;3.35;1.30;;;;;;;14.14;72.35;99428.47;5074976;28;20072;-41
2023/10/02 10:10:49;;;;;;;3.67;1.30;;;;;;;14.37;72.01;99433.38;5068133;28;20040;-40
2023/10/02 10:13:37;;;;;;;2.88;1.25;;;;;;;14.64;71.60;99431.88;5073667;28;20134;-41
2023/10/02 10:16:23;;;;;;;2.35;1.50;;;;;;;14.92;70.65;99432.94;5089412;28;20032;-42
2023/10/02 10:19:26;;;;;;;3.65;1.08;;;;;;;15.19;69.71;99428.75;5068778;28;20469;-41
2023/10/02 10:21:57;;;;;;;2.78;1.40;;;;;;;15.86;68.32;99402.09;5067666;28;20044;-42
2023/10/02 10:24:34;;;;;;;2.17;0.93;;;;;;;16.33;66.23;99435.09;5069025;28;20106;-43
2023/10/02 10:27:01;;;;;;;1.55;0.88;;;;;;;16.52;65.61;99436.47;5068934;28;20037;-44
2023/10/02 10:30:10;;;;;;;2.30;0.95;;;;;;;16.50;64.13;99425.22;5067897;28;20044;-41
2023/10/02 10:32:36;;;;;;;3.90;1.15;;;;;;;16.91;63.60;99438.38;5072779;28;20155;-40
2023/10/02 10:35:15;;;;;;;4.15;1.35;;;;;;;17.10;63.15;99439.81;5073510;28;20066;-42
2023/10/02 10:37:48;;;;;;;2.45;1.20;;;;;;;17.28;62.40;99435.97;5067567;28;20033;-41
2023/10/02 10:40:55;;;;;;;1.92;1.10;;;;;;;17.45;61.80;99429.63;5080498;28;20109;-42
2023/10/02 10:43:26;;;;;;;3.63;1.00;;;;;;;17.57;61.33;99436.69;5069010;28;20559;-42
2023/10/02 10:45:54;;;;;;;5.45;1.75;;;;;;;17.60;60.60;99429.47;5067362;28;20040;-41
2023/10/02 10:48:22;;;;;;;2.78;1.00;;;;;;;17.60;60.03;99434.72;5067438;28;20040;-41
2023/10/02 10:51:09;;;;;;;2.72;1.23;;;;;;;17.04;60.21;99429.72;5075111;28;20071;-44
2023/10/02 10:53:41;;;;;;;1.92;0.88;;;;;;;16.79;60.47;99423.41;5077691;28;20036;-42
2023/10/02 10:56:19;;;;;;;1.38;0.88;;;;;;;16.74;60.62;99399.25;5083096;28;20067;-41
2023/10/02 10:59:09;;;;;;;2.10;0.80;;;;;;;17.45;59.57;99430.47;5068711;28;20040;-40
2023/10/02 11:01:34;;;;;;;2.33;1.17;;;;;;;17.47;59.21;99399.66;5068668;28;20041;-47
2023/10/02 11:04:04;;;;;;;5.03;1.20;;;;;;;17.77;59.05;99413.41;5067327;28;20442;-41
2023/10/02 11:06:30;;;;;;;4.38;1.38;;;;;;;17.81;58.79;99421.91;5084182;28;20056;-40
2023/10/02 11:09:11;;;;;;;3.47;1.33;;;;;;;18.02;58.26;99420.44;5084537;28;20185;-41
2023/10/02 11:11:50;;;;;;;2.50;1.25;;;;;;;18.53;57.13;99420.38;5085807;28;20039;-41
2023/10/02 11:14:23;;;;;;;3.05;1.10;;;;;;;18.30;56.61;99415.91;5068836;28;20047;-41
2023/10/02 11:16:56;;;;;;;3.17;1.00;;;;;;;18.01;56.50;99391.59;5072885;28;20415;-41
2023/10/02 11:25:17;;;;;;;2.47;1.08;;;;;;;17.63;56.49;99417.91;5072413;28;20051;-42
2023/10/02 11:27:57;;;;;;;4.05;0.95;;;;;;;17.54;56.95;99426.38;5072835;28;20060;-42
2023/10/02 11:30:31;;;;;;;5.97;1.33;;;;;;;17.66;56.74;99415.06;5066994;28;20040;-44
2023/10/02 11:33:04;;;;;;;4.05;1.70;;;;;;;17.81;56.69;99419.28;5080847;28;20036;-42
2023/10/02 11:35:38;;;;;;;1.23;0.90;;;;;;;17.84;56.24;99416.47;5049859;28;20048;-42
2023/10/02 11:38:07;;;;;;;3.47;1.10;;;;;;;17.82;55.68;99423.59;5102452;28;20036;-41
2023/10/02 11:40:34;;;;;;;8.55;1.27;;;;;;;17.97;55.50;99416.44;5087957;28;20035;-41
2023/10/02 11:43:00;;;;;;;3.58;1.55;;;;;;;18.20;55.39;99426.22;5069491;28;20047;-41
2023/10/02 11:45:28;;;;;;;3.28;1.10;;;;;;;18.27;54.73;99422.19;5087942;28;20504;-42
2023/10/02 11:47:54;;;;;;;6.35;1.60;;;;;;;18.30;54.52;99416.75;5088128;28;20129;-44
2023/10/02 11:50:20;;;;;;;10.95;3.67;;;;;;;18.44;54.17;99428.91;5086840;28;20086;-42
2023/10/02 11:52:47;;;;;;;3.90;1.38;;;;;;;18.77;53.27;99399.38;5091889;28;20047;-41
2023/10/02 11:55:17;;;;;;;7.03;1.40;;;;;;;20.33;50.71;99421.81;5066625;28;20044;-42
2023/10/02 11:57:51;;;;;;;5.05;1.65;;;;;;;20.60;49.95;99432.84;5067086;28;20058;-43
2023/10/02 12:00:22;;;;;;;5.75;1.45;;;;;;;20.28;50.22;99424.78;5086650;28;20634;-41
2023/10/02 12:02:49;;;;;;;4.75;1.30;;;;;;;20.18;50.12;99405.34;5070080;28;20100;-42
2023/10/02 12:05:16;;;;;;;3.40;1.23;;;;;;;19.93;50.22;99425.84;5075749;28;20071;-41
2023/10/02 12:07:44;;;;;;;3.83;1.55;;;;;;;19.45;50.46;99410.97;5066343;28;20079;-41
2023/10/02 12:10:15;;;;;;;3.08;1.35;;;;;;;19.30;51.11;99432.34;5068954;28;20523;-42
2023/10/02 12:12:45;;;;;;;2.83;1.10;;;;;;;19.07;51.82;99420.00;5067454;28;20160;-41
2023/10/02 12:15:15;;;;;;;4.60;1.42;;;;;;;18.81;52.17;99420.13;5067632;28;20041;-41
2023/10/02 12:17:42;;;;;;;2.35;1.25;;;;;;;18.63;52.39;99432.00;5087648;28;20036;-41
2023/10/02 12:20:10;;;;;;;3.75;1.30;;;;;;;18.41;52.61;99419.47;5087812;28;20051;-42
2023/10/02 12:22:37;;;;;;;6.30;1.50;;;;;;;17.99;52.56;99401.41;5051224;28;20035;-43
2023/10/02 12:25:09;;;;;;;4.10;1.75;;;;;;;17.96;52.81;99423.50;5083185;28;20089;-42
2023/10/02 12:27:39;;;;;;;4.57;1.25;;;;;;;17.84;53.15;99426.13;5076216;28;20080;-42
2023/10/02 12:30:11;;;;;;;6.40;1.20;;;;;;;17.61;53.54;99418.00;5080395;28;20594;-42
2023/10/02 12:32:38;;;;;;;4.45;1.20;;;;;;;17.12;54.16;99406.41;5086120;28;20047;-41
2023/10/02 12:35:05;;;;;;;2.33;1.05;;;;;;;16.81;54.80;99423.31;5069234;28;20043;-42
2023/10/02 12:37:32;;;;;;;5.30;1.15;;;;;;;16.29;55.46;99375.84;5069653;28;20051;-41
2023/10/02 12:39:58;;;;;;;4.10;1.50;;;;;;;16.35;56.38;99431.41;5086339;28;20036;-41
2023/10/02 12:42:25;;;;;;;5.03;1.38;;;;;;;15.98;56.75;99393.50;5084574;28;20044;-42
2023/10/02 12:44:54;;;;;;;6.57;1.33;;;;;;;16.10;57.34;99426.00;5067350;28;20130;-41
2023/10/02 12:47:21;;;;;;;4.15;1.23;;;;;;;16.07;57.44;99444.53;5066124;28;20032;-41
2023/10/02 12:49:48;;;;;;;5.72;1.63;;;;;;;16.02;57.73;99433.47;5072600;28;20131;-42
2023/10/02 12:52:15;;;;;;;5.55;1.70;;;;;;;15.97;57.92;99425.03;5086098;28;20062;-41
2023/10/02 12:54:42;;;;;;;7.70;1.90;;;;;;;15.95;58.59;99432.19;5065785;28;20044;-41
2023/10/02 12:57:08;;;;;;;3.60;1.50;;;;;;;16.09;58.09;99440.03;5067415;28;20118;-42